createdAt,value
2018-03-19T00:02:22.627Z,53.40
2018-03-19T00:04:50.972Z,53.60
2018-03-19T00:07:19.295Z,53.40
2018-03-19T00:09:47.630Z,53.40
2018-03-19T00:12:15.955Z,53.50
2018-03-19T00:14:44.299Z,53.30
2018-03-19T00:17:12.614Z,53.60
2018-03-19T00:19:40.171Z,53.60
2018-03-19T00:22:08.510Z,53.40
2018-03-19T00:24:36.826Z,53.00
2018-03-19T00:27:05.164Z,52.30
2018-03-19T00:29:33.483Z,52.70
2018-03-19T00:32:01.821Z,53.10
2018-03-19T00:34:30.131Z,53.00
2018-03-19T00:36:58.467Z,53.00
2018-03-19T00:39:26.789Z,53.10
2018-03-19T00:41:55.147Z,52.50
2018-03-19T00:44:23.462Z,52.30
2018-03-19T00:46:51.802Z,52.60
2018-03-19T00:49:20.123Z,52.90
2018-03-19T00:51:48.465Z,52.60
2018-03-19T00:54:16.779Z,52.40
2018-03-19T00:56:45.123Z,52.50
2018-03-19T00:59:13.449Z,52.60
2018-03-19T01:01:41.810Z,52.90
2018-03-19T01:04:10.128Z,53.10
2018-03-19T01:06:38.470Z,52.90
2018-03-19T01:09:06.783Z,52.40
2018-03-19T01:11:35.123Z,52.10
2018-03-19T01:14:03.441Z,52.40
2018-03-19T01:16:31.776Z,52.60
2018-03-19T01:19:00.087Z,52.80
2018-03-19T01:21:28.427Z,53.00
2018-03-19T01:23:56.744Z,52.70
2018-03-19T01:26:25.059Z,52.90
2018-03-19T01:28:53.394Z,53.00
2018-03-19T01:31:21.707Z,52.80
2018-03-19T01:33:50.037Z,52.50
2018-03-19T01:36:18.355Z,52.40
2018-03-19T01:38:46.697Z,52.40
2018-03-19T01:41:15.020Z,53.10
2018-03-19T01:43:43.358Z,52.90
2018-03-19T01:46:11.677Z,52.50
2018-03-19T01:48:40.007Z,52.40
2018-03-19T01:51:08.335Z,52.40
2018-03-19T01:53:36.670Z,52.70
2018-03-19T01:56:04.991Z,52.50
2018-03-19T01:58:33.332Z,52.70
2018-03-19T02:01:01.647Z,52.70
2018-03-19T02:03:29.991Z,52.50
2018-03-19T02:05:58.301Z,52.50
2018-03-19T02:08:26.641Z,52.20
2018-03-19T02:10:54.960Z,52.10
2018-03-19T02:13:23.299Z,52.40
2018-03-19T02:15:51.620Z,52.50
2018-03-19T02:18:23.741Z,52.70
2018-03-19T02:20:52.056Z,52.40
2018-03-19T02:23:20.395Z,52.50
2018-03-19T02:25:48.706Z,53.40
2018-03-19T02:28:17.046Z,52.80
2018-03-19T02:30:45.364Z,53.00
2018-03-19T02:33:13.708Z,53.10
2018-03-19T02:35:42.035Z,52.70
2018-03-19T02:38:10.372Z,53.00
2018-03-19T02:40:38.697Z,52.80
2018-03-19T02:43:07.037Z,52.30
2018-03-19T02:45:35.348Z,52.60
2018-03-19T02:48:03.687Z,52.90
2018-03-19T02:50:32.002Z,52.60
2018-03-19T02:53:00.370Z,52.70
2018-03-19T02:55:28.698Z,53.00
2018-03-19T02:57:57.039Z,52.80
2018-03-19T03:00:25.356Z,52.80
2018-03-19T03:02:53.699Z,52.80
2018-03-19T03:05:22.019Z,52.40
2018-03-19T03:07:50.364Z,52.60
2018-03-19T03:10:18.682Z,52.80
2018-03-19T03:12:47.034Z,52.80
2018-03-19T03:15:15.359Z,52.50
2018-03-19T03:17:43.680Z,52.60
2018-03-19T03:20:12.016Z,53.00
2018-03-19T03:22:40.332Z,53.10
2018-03-19T03:25:09.727Z,53.00
2018-03-19T03:27:38.030Z,53.30
2018-03-19T03:30:06.368Z,53.50
2018-03-19T03:32:34.686Z,53.00
2018-03-19T03:35:03.022Z,53.10
2018-03-19T03:37:31.341Z,53.10
2018-03-19T03:39:59.673Z,53.30
2018-03-19T03:42:27.992Z,53.50
2018-03-19T03:44:56.331Z,53.20
2018-03-19T03:47:24.678Z,53.40
2018-03-19T03:49:53.021Z,53.40
2018-03-19T03:52:21.338Z,53.30
2018-03-19T03:54:49.680Z,53.10
2018-03-19T03:57:18.002Z,53.30
2018-03-19T03:59:46.336Z,53.40
2018-03-19T04:02:14.648Z,53.20
2018-03-19T04:04:42.990Z,53.20
2018-03-19T04:07:11.310Z,52.80
2018-03-19T04:09:39.642Z,52.70
2018-03-19T04:12:07.964Z,52.80
2018-03-19T04:14:36.297Z,52.60
2018-03-19T04:17:04.633Z,52.90
2018-03-19T04:19:32.987Z,53.50
2018-03-19T04:22:01.305Z,53.70
2018-03-19T04:24:29.649Z,53.40
2018-03-19T04:26:57.973Z,53.00
2018-03-19T04:29:26.316Z,53.40
2018-03-19T04:31:54.651Z,53.30
2018-03-19T04:34:22.995Z,53.10
2018-03-19T04:36:51.316Z,53.10
2018-03-19T04:39:19.654Z,53.40
2018-03-19T04:41:47.974Z,53.60
2018-03-19T04:44:16.306Z,53.40
2018-03-19T04:46:44.623Z,53.40
2018-03-19T04:49:12.962Z,53.30
2018-03-19T04:51:41.282Z,53.50
2018-03-19T04:54:09.631Z,53.10
2018-03-19T04:56:37.946Z,53.10
2018-03-19T04:59:06.282Z,53.30
2018-03-19T05:01:34.599Z,53.70
2018-03-19T05:04:02.930Z,54.00
2018-03-19T05:06:31.282Z,54.10
2018-03-19T05:08:59.595Z,54.00
2018-03-19T05:11:27.936Z,53.90
2018-03-19T05:13:56.250Z,53.30
2018-03-19T05:16:24.589Z,53.40
2018-03-19T05:18:52.915Z,53.90
2018-03-19T05:21:21.304Z,53.60
2018-03-19T05:23:49.594Z,53.70
2018-03-19T05:26:17.927Z,53.80
2018-03-19T05:28:46.253Z,53.80
2018-03-19T05:31:14.588Z,53.80
2018-03-19T05:33:42.910Z,53.60
2018-03-19T05:36:11.243Z,53.30
2018-03-19T05:38:39.564Z,53.40
2018-03-19T05:41:07.906Z,53.50
2018-03-19T05:43:36.222Z,53.70
2018-03-19T05:46:04.570Z,53.80
2018-03-19T05:48:32.901Z,53.70
2018-03-19T05:51:01.234Z,53.70
2018-03-19T05:53:29.548Z,53.60
2018-03-19T05:55:57.898Z,53.00
2018-03-19T05:58:26.227Z,53.00
2018-03-19T06:00:54.576Z,52.70
2018-03-19T06:03:22.897Z,53.30
2018-03-19T06:05:51.237Z,53.60
2018-03-19T06:08:19.564Z,53.70
2018-03-19T06:10:47.900Z,54.00
2018-03-19T06:13:16.217Z,53.30
2018-03-19T06:15:44.562Z,53.40
2018-03-19T06:18:12.882Z,53.40
2018-03-19T06:20:41.219Z,53.60
2018-03-19T06:23:09.531Z,53.50
2018-03-19T06:25:37.876Z,53.20
2018-03-19T06:28:06.209Z,52.80
2018-03-19T06:30:34.563Z,52.80
2018-03-19T06:33:02.907Z,53.10
2018-03-19T06:35:31.244Z,53.30
2018-03-19T06:37:59.558Z,52.80
2018-03-19T06:40:27.899Z,53.40
2018-03-19T06:42:56.224Z,53.60
2018-03-19T06:45:24.581Z,53.10
2018-03-19T06:47:52.895Z,53.00
2018-03-19T06:50:21.208Z,52.90
2018-03-19T06:52:49.557Z,53.00
2018-03-19T06:55:17.880Z,53.10
2018-03-19T06:57:46.230Z,53.30
2018-03-19T07:00:14.552Z,53.30
2018-03-19T07:02:42.892Z,53.10
2018-03-19T07:05:11.217Z,53.00
2018-03-19T07:07:39.555Z,52.80
2018-03-19T07:10:07.876Z,52.80
2018-03-19T07:12:36.235Z,53.30
2018-03-19T07:15:04.599Z,53.30
2018-03-19T07:17:32.943Z,53.00
2018-03-19T07:20:01.263Z,53.10
2018-03-19T07:22:29.608Z,53.50
2018-03-19T07:24:57.946Z,53.00
2018-03-19T07:27:26.315Z,52.60
2018-03-19T07:29:54.636Z,52.50
2018-03-19T07:32:22.979Z,52.40
2018-03-19T07:34:51.305Z,52.10
2018-03-19T07:37:19.695Z,52.30
2018-03-19T07:39:48.007Z,52.40
2018-03-19T07:42:16.340Z,52.30
2018-03-19T07:44:44.657Z,52.40
2018-03-19T07:47:12.995Z,52.50
2018-03-19T07:49:41.318Z,52.50
2018-03-19T07:52:09.663Z,52.60
2018-03-19T07:54:37.989Z,52.40
2018-03-19T07:57:06.327Z,52.60
2018-03-19T07:59:34.648Z,51.30
2018-03-19T08:02:02.999Z,51.90
2018-03-19T08:04:31.316Z,52.00
2018-03-19T08:06:59.663Z,51.70
2018-03-19T08:09:27.988Z,51.50
2018-03-19T08:11:56.330Z,51.50
2018-03-19T08:14:24.650Z,51.70
2018-03-19T08:16:53.015Z,51.40
2018-03-19T08:19:21.331Z,52.00
2018-03-19T08:21:49.676Z,51.50
2018-03-19T08:24:17.987Z,51.00
2018-03-19T08:26:47.236Z,51.30
2018-03-19T08:29:15.555Z,51.10
2018-03-19T08:31:43.899Z,50.70
2018-03-19T08:34:12.215Z,50.80
2018-03-19T08:36:40.651Z,50.50
2018-03-19T08:39:09.205Z,50.30
2018-03-19T08:41:37.587Z,50.50
2018-03-19T08:44:05.924Z,50.00
2018-03-19T08:46:34.260Z,50.00
2018-03-19T08:49:02.590Z,50.10
2018-03-19T08:51:30.911Z,50.20
2018-03-19T08:53:59.259Z,50.50
2018-03-19T08:56:27.583Z,49.40
2018-03-19T08:58:55.926Z,49.40
2018-03-19T09:01:24.239Z,49.50
2018-03-19T09:03:52.596Z,49.60
2018-03-19T09:06:20.916Z,48.40
2018-03-19T09:08:49.259Z,48.60
2018-03-19T09:11:17.583Z,48.80
2018-03-19T09:13:45.937Z,48.80
2018-03-19T09:16:14.265Z,48.80
2018-03-19T09:18:42.716Z,48.00
2018-03-19T09:21:11.102Z,48.30
2018-03-19T09:23:39.640Z,48.00
2018-03-19T09:26:07.995Z,48.20
2018-03-19T09:28:36.363Z,47.40
2018-03-19T09:31:04.719Z,47.30
2018-03-19T09:33:33.051Z,47.60
2018-03-19T09:36:01.378Z,47.60
2018-03-19T09:38:29.722Z,47.00
2018-03-19T09:40:58.033Z,46.90
2018-03-19T09:43:26.369Z,47.00
2018-03-19T09:45:54.678Z,47.00
2018-03-19T09:48:23.028Z,47.00
2018-03-19T09:50:51.341Z,47.40
2018-03-19T09:53:19.674Z,48.20
2018-03-19T09:55:48.036Z,48.80
2018-03-19T09:58:16.455Z,48.20
2018-03-19T10:00:44.839Z,47.60
2018-03-19T10:03:13.243Z,46.60
2018-03-19T10:05:41.724Z,47.30
2018-03-19T10:08:10.236Z,47.30
2018-03-19T10:10:38.719Z,47.90
2018-03-19T10:13:07.123Z,48.60
2018-03-19T10:15:35.435Z,49.10
2018-03-19T10:18:03.789Z,48.90
2018-03-19T10:20:32.143Z,49.50
2018-03-19T10:23:00.466Z,48.80
2018-03-19T10:25:28.920Z,48.30
2018-03-19T10:27:57.319Z,47.70
2018-03-19T10:30:25.714Z,47.30
2018-03-19T10:32:54.039Z,47.10
2018-03-19T10:35:22.380Z,46.90
2018-03-19T10:37:50.724Z,47.30
2018-03-19T10:40:19.061Z,47.00
2018-03-19T10:42:47.380Z,47.00
2018-03-19T10:45:15.740Z,47.10
2018-03-19T10:47:44.136Z,46.70
2018-03-19T10:50:12.538Z,46.90
2018-03-19T10:52:41.020Z,46.80
2018-03-19T10:55:09.594Z,46.30
2018-03-19T10:57:37.954Z,45.60
2018-03-19T11:00:06.310Z,45.90
2018-03-19T11:02:40.369Z,46.10
2018-03-19T11:05:14.447Z,46.20
2018-03-19T11:07:46.562Z,46.60
2018-03-19T11:10:14.900Z,46.20
2018-03-19T11:12:43.367Z,45.80
2018-03-19T11:15:11.838Z,45.70
2018-03-19T11:17:40.280Z,45.60
2018-03-19T11:20:09.688Z,45.90
2018-03-19T11:22:38.054Z,45.70
2018-03-19T11:25:06.445Z,44.80
2018-03-19T11:27:34.763Z,44.60
2018-03-19T11:30:03.603Z,44.70
2018-03-19T11:32:31.925Z,44.80
2018-03-19T11:35:00.262Z,45.20
2018-03-19T11:37:28.591Z,44.90
2018-03-19T11:39:56.941Z,44.40
2018-03-19T11:42:25.280Z,44.60
2018-03-19T11:44:53.623Z,44.70
2018-03-19T11:47:21.982Z,44.80
2018-03-19T11:49:50.312Z,44.70
2018-03-19T11:52:18.721Z,45.10
2018-03-19T11:54:46.359Z,45.10
2018-03-19T11:57:14.227Z,45.50
2018-03-19T11:59:42.656Z,45.00
2018-03-19T12:02:11.043Z,45.00
2018-03-19T12:04:39.584Z,45.30
2018-03-19T12:07:09.819Z,46.00
2018-03-19T12:09:38.654Z,45.60
2018-03-19T12:12:07.000Z,45.80
2018-03-19T12:14:35.323Z,45.80
2018-03-19T12:17:03.665Z,45.20
2018-03-19T12:19:31.985Z,45.00
2018-03-19T12:22:00.340Z,45.60
2018-03-19T12:24:28.652Z,45.30
2018-03-19T12:26:56.994Z,45.00
2018-03-19T12:29:25.309Z,45.30
2018-03-19T12:31:53.684Z,45.40
2018-03-19T12:34:22.004Z,45.00
2018-03-19T12:36:50.359Z,44.90
2018-03-19T12:39:18.695Z,45.30
2018-03-19T12:41:47.119Z,44.60
2018-03-19T12:44:15.453Z,43.10
2018-03-19T12:46:43.814Z,43.40
2018-03-19T12:49:12.302Z,43.60
2018-03-19T12:51:40.754Z,42.70
2018-03-19T12:54:09.162Z,42.10
2018-03-19T12:56:38.412Z,42.10
2018-03-19T12:59:05.964Z,42.10
2018-03-19T13:01:34.796Z,42.60
2018-03-19T13:04:03.136Z,42.80
2018-03-19T13:06:31.492Z,42.70
2018-03-19T13:08:59.862Z,42.50
2018-03-19T13:11:28.187Z,42.80
2018-03-19T13:13:56.505Z,43.20
2018-03-19T13:16:24.866Z,44.10
2018-03-19T13:18:53.178Z,43.70
2018-03-19T13:21:21.513Z,43.10
2018-03-19T13:23:49.829Z,42.50
2018-03-19T13:26:18.167Z,43.40
2018-03-19T13:28:46.481Z,43.40
2018-03-19T13:31:14.862Z,43.00
2018-03-19T13:33:43.271Z,42.90
2018-03-19T13:36:11.768Z,42.50
2018-03-19T13:38:40.190Z,42.80
2018-03-19T13:41:09.173Z,42.70
2018-03-19T13:43:37.521Z,43.00
2018-03-19T13:46:05.862Z,42.30
2018-03-19T13:48:34.205Z,41.60
2018-03-19T13:51:02.552Z,41.80
2018-03-19T13:53:30.946Z,41.50
2018-03-19T13:55:59.287Z,42.20
2018-03-19T13:58:26.860Z,42.20
2018-03-19T14:00:55.172Z,41.90
2018-03-19T14:03:23.563Z,41.50
2018-03-19T14:05:52.126Z,41.30
2018-03-19T14:08:20.474Z,41.10
2018-03-19T14:10:48.788Z,40.70
2018-03-19T14:13:17.192Z,39.60
2018-03-19T14:15:45.590Z,39.90
2018-03-19T14:18:14.043Z,39.90
2018-03-19T14:20:42.394Z,40.50
2018-03-19T14:23:10.824Z,40.20
2018-03-19T14:25:39.300Z,40.00
2018-03-19T14:28:07.686Z,40.30
2018-03-19T14:30:36.052Z,40.00
2018-03-19T14:33:04.415Z,38.60
2018-03-19T14:35:32.783Z,38.50
2018-03-19T14:38:00.397Z,38.50
2018-03-19T14:40:28.723Z,37.40
2018-03-19T14:42:57.186Z,37.40
2018-03-19T14:45:25.495Z,37.80
2018-03-19T14:47:53.878Z,38.20
2018-03-19T14:50:22.190Z,38.40
2018-03-19T14:52:50.664Z,38.60
2018-03-19T14:55:18.894Z,37.60
2018-03-19T14:57:47.227Z,38.10
2018-03-19T15:00:15.552Z,38.00
2018-03-19T15:02:44.102Z,37.80
2018-03-19T15:05:12.620Z,37.80
2018-03-19T15:07:40.388Z,37.70
2018-03-19T15:10:08.919Z,38.00
2018-03-19T15:12:37.267Z,38.40
2018-03-19T15:15:05.594Z,38.30
2018-03-19T15:17:33.931Z,37.90
2018-03-19T15:20:02.888Z,37.70
2018-03-19T15:22:31.218Z,37.00
2018-03-19T15:24:59.562Z,37.50
2018-03-19T15:27:27.899Z,37.80
2018-03-19T15:29:56.215Z,36.40
2018-03-19T15:32:24.554Z,37.30
2018-03-19T15:34:52.875Z,37.30
2018-03-19T15:37:21.266Z,37.10
2018-03-19T15:39:49.592Z,37.00
2018-03-19T15:42:18.123Z,37.50
2018-03-19T15:44:46.613Z,36.60
2018-03-19T15:49:49.752Z,37.00
2018-03-19T15:52:18.184Z,37.60
2018-03-19T15:54:46.560Z,37.00
2018-03-19T15:57:15.066Z,37.70
2018-03-19T15:59:43.506Z,37.30
2018-03-19T16:02:11.990Z,38.30
2018-03-19T16:04:41.374Z,38.00
2018-03-19T16:07:10.591Z,38.30
2018-03-19T16:09:39.037Z,38.30
2018-03-19T16:12:07.369Z,37.40
2018-03-19T16:14:35.698Z,37.80
2018-03-19T16:17:04.012Z,37.50
2018-03-19T16:19:32.368Z,37.80
2018-03-19T16:22:00.688Z,37.70
2018-03-19T16:24:29.029Z,38.20
2018-03-19T16:26:57.394Z,38.60
2018-03-19T16:29:25.745Z,38.60
2018-03-19T16:31:54.074Z,39.30
2018-03-19T16:34:22.443Z,39.80
2018-03-19T16:36:50.057Z,39.80
2018-03-19T16:39:18.512Z,40.10
2018-03-19T16:41:46.924Z,40.30
2018-03-19T16:44:15.375Z,40.90
2018-03-19T16:46:43.856Z,40.90
2018-03-19T16:49:12.348Z,41.10
2018-03-19T16:51:40.834Z,41.10
2018-03-19T16:54:09.404Z,41.40
2018-03-19T16:56:38.014Z,41.90
2018-03-19T16:59:06.436Z,41.80
2018-03-19T17:01:34.774Z,42.20
2018-03-19T17:04:03.113Z,42.80
2018-03-19T17:06:31.441Z,42.90
2018-03-19T17:08:59.775Z,43.50
2018-03-19T17:11:28.100Z,43.50
2018-03-19T17:13:56.437Z,43.70
2018-03-19T17:16:24.782Z,43.60
2018-03-19T17:18:53.111Z,43.90
2018-03-19T17:21:21.428Z,44.10
2018-03-19T17:23:49.932Z,44.10
2018-03-19T17:26:18.364Z,44.40
2018-03-19T17:28:46.880Z,44.90
2018-03-19T17:31:15.388Z,44.60
2018-03-19T17:33:43.982Z,44.50
2018-03-19T17:36:12.663Z,45.00
2018-03-19T17:38:40.336Z,45.60
2018-03-19T17:41:08.921Z,45.20
2018-03-19T17:43:37.279Z,45.30
2018-03-19T17:46:05.619Z,45.10
2018-03-19T17:48:33.923Z,45.30
2018-03-19T17:51:02.271Z,45.60
2018-03-19T17:53:30.600Z,46.40
2018-03-19T17:55:58.935Z,46.50
2018-03-19T17:58:27.251Z,46.90
2018-03-19T18:00:55.628Z,47.40
2018-03-19T18:03:23.967Z,47.40
2018-03-19T18:05:52.305Z,47.50
2018-03-19T18:08:23.658Z,47.60
2018-03-19T18:10:52.159Z,47.80
2018-03-19T18:13:20.503Z,47.90
2018-03-19T18:15:48.938Z,48.30
2018-03-19T18:18:17.429Z,48.60
2018-03-19T18:20:45.940Z,49.10
2018-03-19T18:23:14.407Z,49.90
2018-03-19T18:25:42.912Z,49.70
2018-03-19T18:28:11.444Z,49.70
2018-03-19T18:30:40.114Z,50.00
2018-03-19T18:33:08.886Z,49.40
2018-03-19T18:35:37.284Z,49.30
2018-03-19T18:38:05.612Z,49.80
2018-03-19T18:40:33.947Z,49.00
2018-03-19T18:43:02.267Z,48.70
2018-03-19T18:45:30.732Z,49.30
2018-03-19T18:47:59.044Z,49.20
2018-03-19T18:50:27.384Z,49.30
2018-03-19T18:52:55.775Z,48.80
2018-03-19T18:55:24.110Z,48.80
2018-03-19T18:57:52.434Z,48.50
2018-03-19T19:00:20.784Z,48.80
2018-03-19T19:02:49.241Z,49.10
2018-03-19T19:05:17.689Z,49.30
2018-03-19T19:07:46.174Z,49.50
2018-03-19T19:10:14.609Z,49.60
2018-03-19T19:12:43.242Z,49.80
2018-03-19T19:15:11.748Z,49.60
2018-03-19T19:17:40.216Z,49.70
2018-03-19T19:20:09.856Z,50.00
2018-03-19T19:22:39.191Z,50.30
2018-03-19T19:25:08.004Z,50.80
2018-03-19T19:27:36.420Z,51.20
2018-03-19T19:30:04.747Z,51.10
2018-03-19T19:32:33.094Z,51.00
2018-03-19T19:35:01.443Z,51.00
2018-03-19T19:37:29.815Z,51.40
2018-03-19T19:39:58.199Z,51.80
2018-03-19T19:42:26.592Z,52.20
2018-03-19T19:44:54.933Z,52.30
2018-03-19T19:47:23.292Z,52.00
2018-03-19T19:49:51.739Z,53.10
2018-03-19T19:52:20.177Z,52.60
2018-03-19T19:54:48.648Z,52.80
2018-03-19T19:57:17.284Z,53.20
2018-03-19T19:59:45.889Z,53.30
2018-03-19T20:02:14.970Z,53.30
2018-03-19T20:04:44.108Z,53.10
2018-03-19T20:07:13.543Z,53.20
2018-03-19T20:09:42.190Z,53.30
2018-03-19T20:12:11.183Z,53.40
2018-03-19T20:14:39.049Z,53.40
2018-03-19T20:17:07.471Z,53.90
2018-03-19T20:19:35.804Z,54.00
2018-03-19T20:22:04.146Z,54.00
2018-03-19T20:24:32.517Z,54.00
2018-03-19T20:27:00.883Z,54.20
2018-03-19T20:29:29.299Z,54.40
2018-03-19T20:31:57.712Z,54.40
2018-03-19T20:34:26.049Z,54.50
2018-03-19T20:36:54.392Z,54.70
2018-03-19T20:39:22.772Z,54.40
2018-03-19T20:41:51.442Z,54.40
2018-03-19T20:44:20.016Z,54.60
2018-03-19T20:46:49.155Z,54.80
2018-03-19T20:49:18.215Z,55.00
2018-03-19T20:51:47.307Z,55.10
2018-03-19T20:54:16.064Z,55.30
2018-03-19T20:56:44.629Z,55.30
2018-03-19T20:59:16.945Z,55.50
2018-03-19T21:01:45.973Z,55.70
2018-03-19T21:04:14.413Z,55.90
2018-03-19T21:06:42.979Z,55.90
2018-03-19T21:09:11.626Z,56.10
2018-03-19T21:11:40.270Z,56.20
2018-03-19T21:14:08.814Z,56.80
2018-03-19T21:16:37.212Z,56.40
2018-03-19T21:19:04.767Z,56.40
2018-03-19T21:21:33.087Z,56.70
2018-03-19T21:24:01.447Z,56.80
2018-03-19T21:26:29.768Z,56.90
2018-03-19T21:28:58.109Z,57.20
2018-03-19T21:31:26.439Z,57.50
2018-03-19T21:33:54.779Z,57.50
2018-03-19T21:36:23.109Z,57.70
2018-03-19T21:38:51.452Z,57.70
2018-03-19T21:41:19.854Z,57.90
2018-03-19T21:43:48.318Z,58.00
2018-03-19T21:46:16.718Z,58.10
2018-03-19T21:48:45.220Z,58.20
2018-03-19T21:51:13.712Z,58.30
2018-03-19T21:53:42.242Z,58.40
2018-03-19T21:56:10.717Z,58.50
2018-03-19T21:58:39.216Z,58.50
2018-03-19T22:01:07.662Z,58.60
2018-03-19T22:03:36.946Z,58.40
2018-03-19T22:06:05.275Z,58.40
2018-03-19T22:08:33.624Z,58.30
2018-03-19T22:11:01.947Z,58.20
2018-03-19T22:13:30.296Z,57.70
2018-03-19T22:15:58.609Z,57.30
2018-03-19T22:18:26.951Z,57.00
2018-03-19T22:20:55.272Z,57.10
2018-03-19T22:23:23.609Z,57.20
2018-03-19T22:25:51.935Z,57.40
2018-03-19T22:28:20.335Z,57.60
2018-03-19T22:30:48.943Z,57.90
2018-03-19T22:33:17.452Z,57.90
2018-03-19T22:35:45.979Z,57.80
2018-03-19T22:38:14.517Z,57.90
2018-03-19T22:40:43.105Z,58.10
2018-03-19T22:43:11.689Z,58.10
2018-03-19T22:45:40.127Z,58.00
2018-03-19T22:48:08.605Z,57.90
2018-03-19T22:50:36.962Z,57.90
2018-03-19T22:53:05.291Z,57.90
2018-03-19T22:55:33.612Z,58.10
2018-03-19T22:58:01.956Z,58.20
2018-03-19T23:00:30.275Z,58.20
2018-03-19T23:02:58.630Z,58.30
2018-03-19T23:05:26.949Z,58.50
2018-03-19T23:07:55.288Z,58.30
2018-03-19T23:10:23.620Z,58.50
2018-03-19T23:12:51.965Z,58.70
2018-03-19T23:15:20.368Z,58.80
2018-03-19T23:17:48.859Z,59.00
2018-03-19T23:20:17.652Z,59.20
2018-03-19T23:22:46.119Z,59.40
2018-03-19T23:25:14.559Z,59.60
2018-03-19T23:27:42.996Z,59.70
2018-03-19T23:30:11.490Z,59.80
2018-03-19T23:32:40.067Z,60.00
2018-03-19T23:35:08.599Z,60.30
2018-03-19T23:37:36.928Z,60.30
2018-03-19T23:40:05.285Z,60.60
2018-03-19T23:42:33.624Z,60.50
2018-03-19T23:45:01.955Z,60.00
2018-03-19T23:47:30.323Z,59.70
2018-03-19T23:49:58.667Z,60.00
2018-03-19T23:52:26.988Z,61.20
2018-03-19T23:54:55.316Z,60.80
2018-03-19T23:57:23.639Z,60.60
2018-03-19T23:59:51.982Z,60.50
